createdAt,value
2019-03-29T00:00:34.818Z,24.63
2019-03-29T00:03:05.667Z,23.10
2019-03-29T00:05:36.592Z,20.10
2019-03-29T00:08:08.440Z,23.83
2019-03-29T00:10:40.653Z,19.90
2019-03-29T00:13:14.447Z,22.22
2019-03-29T00:15:44.014Z,18.52
2019-03-29T00:18:14.902Z,19.42
2019-03-29T00:20:47.250Z,23.42
2019-03-29T00:23:19.338Z,23.27
2019-03-29T00:25:50.254Z,19.10
2019-03-29T00:28:21.184Z,20.68
2019-03-29T00:30:52.182Z,24.77
2019-03-29T00:33:23.927Z,29.52
2019-03-29T00:35:54.875Z,20.37
2019-03-29T00:38:25.768Z,20.97
2019-03-29T00:40:57.036Z,22.75
2019-03-29T00:43:28.258Z,21.02
2019-03-29T00:45:59.160Z,22.75
2019-03-29T00:48:30.056Z,24.63
2019-03-29T00:51:01.025Z,36.38
2019-03-29T00:53:31.954Z,27.62
2019-03-29T00:56:02.872Z,25.20
2019-03-29T00:58:33.704Z,33.40
2019-03-29T01:01:04.601Z,38.23
2019-03-29T01:03:35.560Z,27.22
2019-03-29T01:06:07.224Z,28.07
2019-03-29T01:08:38.409Z,28.55
2019-03-29T01:11:09.356Z,34.58
2019-03-29T01:13:40.104Z,31.45
2019-03-29T01:16:10.994Z,40.23
2019-03-29T01:18:41.824Z,30.82
2019-03-29T01:21:14.061Z,30.20
2019-03-29T01:23:44.866Z,26.10
2019-03-29T01:26:15.814Z,35.68
2019-03-29T01:28:46.680Z,24.12
2019-03-29T01:31:18.048Z,30.37
2019-03-29T01:33:48.884Z,38.75
2019-03-29T01:36:19.744Z,31.35
2019-03-29T01:38:51.186Z,35.78
2019-03-29T01:41:22.082Z,30.02
2019-03-29T01:43:52.953Z,29.65
2019-03-29T01:46:23.784Z,28.10
2019-03-29T01:48:54.682Z,39.05
2019-03-29T01:51:26.212Z,40.98
2019-03-29T01:53:57.149Z,25.37
2019-03-29T01:56:28.009Z,26.25
2019-03-29T01:58:58.861Z,30.90
2019-03-29T02:01:29.748Z,26.82
2019-03-29T02:04:00.602Z,28.17
2019-03-29T02:06:31.611Z,24.50
2019-03-29T02:09:02.736Z,24.90
2019-03-29T02:11:34.715Z,37.60
2019-03-29T02:14:05.595Z,30.65
2019-03-29T02:16:36.648Z,24.85
2019-03-29T02:19:07.511Z,28.62
2019-03-29T02:21:38.896Z,28.32
2019-03-29T02:24:09.827Z,26.17
2019-03-29T02:26:40.694Z,28.27
2019-03-29T02:29:11.593Z,29.75
2019-03-29T02:31:42.846Z,29.02
2019-03-29T02:34:15.787Z,23.65
2019-03-29T02:36:46.244Z,25.12
2019-03-29T02:39:17.098Z,26.33
2019-03-29T02:41:47.959Z,27.45
2019-03-29T02:44:18.824Z,28.92
2019-03-29T02:46:49.819Z,25.45
2019-03-29T02:49:20.667Z,24.18
2019-03-29T02:51:52.414Z,34.45
2019-03-29T02:54:23.399Z,32.63
2019-03-29T02:56:54.286Z,30.75
2019-03-29T02:59:25.197Z,33.58
2019-03-29T03:01:56.089Z,33.25
2019-03-29T03:04:27.053Z,34.20
2019-03-29T03:06:57.939Z,36.03
2019-03-29T03:09:28.809Z,36.83
2019-03-29T03:11:59.790Z,31.15
2019-03-29T03:14:30.772Z,35.83
2019-03-29T03:17:01.627Z,32.88
2019-03-29T03:19:32.524Z,35.05
2019-03-29T03:22:04.639Z,36.33
2019-03-29T03:24:35.553Z,34.35
2019-03-29T03:27:06.430Z,31.35
2019-03-29T03:29:37.290Z,35.40
2019-03-29T03:32:08.139Z,38.53
2019-03-29T03:34:38.974Z,29.95
2019-03-29T03:37:09.901Z,30.68
2019-03-29T03:39:40.791Z,37.93
2019-03-29T03:42:11.666Z,34.03
2019-03-29T03:44:42.647Z,35.40
2019-03-29T03:47:13.508Z,33.50
2019-03-29T03:49:44.603Z,42.55
2019-03-29T03:52:15.825Z,36.10
2019-03-29T03:54:46.718Z,25.60
2019-03-29T03:57:18.065Z,24.98
2019-03-29T03:59:50.740Z,33.20
2019-03-29T04:02:21.734Z,28.62
2019-03-29T04:04:52.593Z,32.42
2019-03-29T04:07:23.470Z,30.52
2019-03-29T04:09:54.323Z,36.17
2019-03-29T04:12:25.282Z,37.93
2019-03-29T04:14:56.104Z,38.88
2019-03-29T04:17:26.967Z,33.05
2019-03-29T04:19:57.846Z,30.65
2019-03-29T04:22:28.688Z,32.75
2019-03-29T04:24:59.585Z,42.98
2019-03-29T04:27:30.454Z,31.70
2019-03-29T04:30:01.345Z,43.25
2019-03-29T04:32:32.261Z,30.97
2019-03-29T04:35:03.125Z,27.30
2019-03-29T04:37:33.957Z,26.73
2019-03-29T04:40:07.556Z,27.80
2019-03-29T04:42:37.479Z,32.73
2019-03-29T04:45:08.565Z,34.00
2019-03-29T04:47:39.408Z,36.60
2019-03-29T04:50:10.393Z,38.63
2019-03-29T04:52:42.137Z,37.03
2019-03-29T04:55:13.005Z,32.30
2019-03-29T04:57:43.841Z,28.45
2019-03-29T05:00:15.329Z,37.65
2019-03-29T05:02:46.295Z,26.60
2019-03-29T05:05:17.218Z,34.33
2019-03-29T05:07:48.131Z,26.65
2019-03-29T05:10:21.642Z,31.42
2019-03-29T05:12:51.617Z,33.55
2019-03-29T05:15:22.476Z,28.20
2019-03-29T05:17:53.367Z,27.58
2019-03-29T05:20:24.238Z,27.42
2019-03-29T05:22:56.229Z,24.85
2019-03-29T05:25:27.128Z,32.63
2019-03-29T05:27:58.025Z,29.40
2019-03-29T05:30:28.936Z,29.20
2019-03-29T05:32:59.773Z,30.20
2019-03-29T05:35:30.665Z,26.45
2019-03-29T05:38:01.541Z,30.80
2019-03-29T05:40:35.098Z,35.40
2019-03-29T05:43:05.004Z,31.62
2019-03-29T05:45:35.911Z,32.80
2019-03-29T05:48:06.764Z,26.57
2019-03-29T05:50:38.549Z,23.10
2019-03-29T05:53:10.511Z,32.35
2019-03-29T05:55:41.818Z,30.97
2019-03-29T05:58:12.707Z,24.85
2019-03-29T06:00:43.629Z,23.30
2019-03-29T06:03:14.530Z,23.42
2019-03-29T06:05:45.355Z,21.30
2019-03-29T06:08:16.228Z,41.45
2019-03-29T06:10:49.207Z,20.97
2019-03-29T06:13:19.586Z,30.72
2019-03-29T06:15:50.505Z,25.40
2019-03-29T06:18:21.402Z,22.20
2019-03-29T06:20:52.271Z,24.55
2019-03-29T06:23:24.358Z,16.45
2019-03-29T06:25:55.318Z,20.55
2019-03-29T06:28:26.192Z,18.15
2019-03-29T06:30:57.158Z,19.73
2019-03-29T06:33:28.175Z,22.05
2019-03-29T06:36:00.765Z,23.15
2019-03-29T06:38:34.856Z,19.48
2019-03-29T06:41:05.736Z,22.87
2019-03-29T06:43:36.709Z,20.05
2019-03-29T06:46:07.628Z,16.48
2019-03-29T06:48:38.585Z,21.77
2019-03-29T06:51:09.494Z,13.32
2019-03-29T06:53:41.357Z,17.37
2019-03-29T06:56:12.306Z,14.07
2019-03-29T06:58:43.977Z,21.37
2019-03-29T07:01:14.871Z,16.15
2019-03-29T07:03:46.828Z,14.40
2019-03-29T07:06:17.943Z,14.23
2019-03-29T07:08:48.829Z,15.93
2019-03-29T07:11:19.811Z,18.70
2019-03-29T07:13:57.407Z,15.80
2019-03-29T07:16:23.225Z,13.85
2019-03-29T07:18:54.105Z,14.73
2019-03-29T07:21:25.013Z,15.88
2019-03-29T07:23:57.208Z,15.88
2019-03-29T07:26:28.148Z,12.43
2019-03-29T07:29:00.052Z,22.45
2019-03-29T07:31:31.049Z,17.60
2019-03-29T07:34:01.936Z,19.87
2019-03-29T07:36:32.788Z,8.05
2019-03-29T07:39:04.552Z,9.35
2019-03-29T07:41:35.412Z,9.27
2019-03-29T07:44:06.317Z,10.40
2019-03-29T07:46:37.422Z,10.00
2019-03-29T07:49:08.322Z,17.62
2019-03-29T07:51:39.260Z,11.73
2019-03-29T07:54:11.477Z,9.08
2019-03-29T07:56:42.377Z,13.90
2019-03-29T07:59:13.276Z,11.22
2019-03-29T08:01:44.133Z,8.30
2019-03-29T08:04:15.103Z,10.63
2019-03-29T08:06:46.619Z,14.58
2019-03-29T08:09:22.663Z,9.18
2019-03-29T08:11:50.129Z,9.73
2019-03-29T08:14:21.120Z,11.65
2019-03-29T08:16:52.097Z,10.38
2019-03-29T08:19:22.951Z,10.03
2019-03-29T08:21:53.813Z,15.05
2019-03-29T08:24:26.165Z,12.25
2019-03-29T08:26:57.049Z,17.15
2019-03-29T08:29:31.472Z,15.43
2019-03-29T08:32:02.461Z,9.55
2019-03-29T08:34:35.917Z,7.28
2019-03-29T08:37:05.969Z,9.75
2019-03-29T08:39:36.845Z,8.50
2019-03-29T08:42:07.716Z,14.38
2019-03-29T08:44:38.598Z,10.90
2019-03-29T08:47:09.509Z,8.97
2019-03-29T08:49:40.299Z,9.63
2019-03-29T08:52:11.257Z,8.97
2019-03-29T08:54:43.732Z,10.97
2019-03-29T08:57:15.385Z,11.27
2019-03-29T08:59:46.253Z,8.10
2019-03-29T09:02:17.144Z,8.03
2019-03-29T09:04:48.225Z,6.67
2019-03-29T09:07:19.645Z,13.10
2019-03-29T09:09:50.500Z,15.97
2019-03-29T09:12:21.427Z,13.20
2019-03-29T09:14:52.307Z,8.53
2019-03-29T09:17:23.175Z,10.07
2019-03-29T09:19:54.086Z,11.23
2019-03-29T09:22:24.949Z,8.90
2019-03-29T09:24:57.443Z,15.97
2019-03-29T09:27:31.717Z,9.17
2019-03-29T09:30:00.881Z,14.40
2019-03-29T09:32:31.911Z,9.27
2019-03-29T09:35:02.765Z,9.70
2019-03-29T09:37:33.621Z,9.17
2019-03-29T09:40:04.671Z,7.57
2019-03-29T09:42:35.578Z,7.10
2019-03-29T09:45:06.813Z,9.07
2019-03-29T09:47:40.505Z,8.10
2019-03-29T09:50:11.073Z,11.40
2019-03-29T09:52:42.064Z,7.63
2019-03-29T09:55:13.173Z,10.47
2019-03-29T09:57:44.143Z,10.63
2019-03-29T10:00:20.998Z,8.33
2019-03-29T10:02:47.989Z,6.20
2019-03-29T10:05:20.221Z,13.97
2019-03-29T10:07:51.533Z,7.40
2019-03-29T10:10:23.409Z,13.60
2019-03-29T10:12:54.393Z,9.27
2019-03-29T10:15:26.406Z,12.50
2019-03-29T10:17:57.257Z,8.80
2019-03-29T10:20:28.335Z,9.70
2019-03-29T10:22:59.249Z,8.07
2019-03-29T10:25:31.627Z,14.57
2019-03-29T10:28:02.524Z,11.00
2019-03-29T10:30:51.569Z,5.90
2019-03-29T10:33:25.962Z,7.30
2019-03-29T10:35:56.827Z,7.50
2019-03-29T10:38:27.733Z,7.40
2019-03-29T10:40:58.654Z,8.17
2019-03-29T10:43:29.518Z,15.03
2019-03-29T10:46:00.449Z,7.93
2019-03-29T10:48:31.417Z,6.50
2019-03-29T10:51:02.222Z,11.13
2019-03-29T10:53:33.113Z,15.00
2019-03-29T10:56:05.610Z,9.47
2019-03-29T10:58:36.637Z,11.07
2019-03-29T11:01:07.575Z,8.33
2019-03-29T11:03:38.493Z,10.47
2019-03-29T11:06:09.389Z,6.40
2019-03-29T11:08:43.438Z,9.67
2019-03-29T11:11:12.938Z,9.00
2019-03-29T11:13:43.848Z,12.33
2019-03-29T11:16:14.803Z,7.00
2019-03-29T11:18:46.103Z,10.20
2019-03-29T11:21:17.013Z,7.70
2019-03-29T11:23:47.921Z,10.60
2019-03-29T11:26:19.978Z,9.90
2019-03-29T11:28:50.858Z,9.77
2019-03-29T11:31:25.489Z,11.00
2019-03-29T11:34:02.418Z,8.67
2019-03-29T11:36:33.288Z,7.33
2019-03-29T11:39:05.360Z,8.80
2019-03-29T11:41:36.248Z,19.53
2019-03-29T11:44:07.160Z,8.03
2019-03-29T11:46:38.942Z,8.20
2019-03-29T11:49:09.863Z,14.23
2019-03-29T11:51:40.780Z,8.80
2019-03-29T11:54:11.631Z,10.13
2019-03-29T11:56:47.369Z,7.77
2019-03-29T11:59:16.581Z,12.63
2019-03-29T12:01:47.438Z,8.63
2019-03-29T12:04:18.441Z,11.80
2019-03-29T12:06:49.339Z,17.83
2019-03-29T12:09:20.241Z,9.63
2019-03-29T12:11:51.130Z,11.77
2019-03-29T12:14:22.145Z,9.70
2019-03-29T12:16:53.102Z,11.20
2019-03-29T12:19:23.996Z,10.83
2019-03-29T12:21:54.863Z,11.97
2019-03-29T12:24:25.794Z,10.50
2019-03-29T12:26:58.913Z,8.83
2019-03-29T12:29:29.854Z,6.60
2019-03-29T12:32:00.763Z,8.90
2019-03-29T12:34:31.661Z,11.40
2019-03-29T12:37:02.610Z,8.87
2019-03-29T12:39:33.501Z,9.97
2019-03-29T12:42:04.419Z,9.87
2019-03-29T12:44:35.283Z,7.93
2019-03-29T12:47:06.173Z,8.70
2019-03-29T12:49:37.080Z,12.83
2019-03-29T12:52:08.005Z,16.17
2019-03-29T12:54:38.885Z,7.43
2019-03-29T12:57:11.231Z,10.00
2019-03-29T12:59:42.085Z,7.20
2019-03-29T13:02:13.578Z,6.67
2019-03-29T13:04:47.126Z,5.17
2019-03-29T13:07:16.989Z,6.03
2019-03-29T13:09:47.845Z,6.23
2019-03-29T13:12:19.124Z,6.37
2019-03-29T13:14:49.912Z,7.87
2019-03-29T13:17:20.820Z,6.90
2019-03-29T13:19:51.671Z,8.13
2019-03-29T13:22:22.587Z,8.23
2019-03-29T13:24:53.488Z,7.63
2019-03-29T13:27:25.785Z,5.50
2019-03-29T13:29:56.835Z,7.20
2019-03-29T13:32:27.759Z,8.30
2019-03-29T13:34:58.810Z,7.37
2019-03-29T13:37:29.673Z,9.37
2019-03-29T13:40:01.077Z,7.07
2019-03-29T13:42:31.955Z,12.77
2019-03-29T13:45:02.865Z,6.67
2019-03-29T13:47:34.795Z,6.43
2019-03-29T13:50:06.888Z,6.17
2019-03-29T13:52:37.734Z,5.70
2019-03-29T13:55:08.860Z,7.77
2019-03-29T13:57:40.627Z,6.63
2019-03-29T14:00:14.343Z,7.93
2019-03-29T14:02:45.461Z,8.67
2019-03-29T14:05:16.393Z,5.33
2019-03-29T14:07:47.352Z,6.87
2019-03-29T14:10:18.498Z,7.30
2019-03-29T14:12:49.445Z,7.00
2019-03-29T14:15:21.309Z,7.13
2019-03-29T14:17:52.317Z,10.80
2019-03-29T14:20:33.731Z,6.97
2019-03-29T14:23:05.659Z,12.43
2019-03-29T14:25:36.532Z,10.20
2019-03-29T14:28:07.710Z,15.13
2019-03-29T14:30:38.612Z,6.60
2019-03-29T14:33:09.553Z,5.63
2019-03-29T14:35:40.561Z,7.47
2019-03-29T14:38:11.427Z,8.73
2019-03-29T14:40:42.402Z,9.23
2019-03-29T14:43:28.413Z,9.97
2019-03-29T14:45:59.277Z,9.27
2019-03-29T14:48:32.491Z,7.40
2019-03-29T14:51:03.365Z,6.80
2019-03-29T14:53:34.241Z,12.30
2019-03-29T14:56:05.572Z,7.10
2019-03-29T14:58:36.634Z,7.77
2019-03-29T15:01:07.535Z,7.67
2019-03-29T15:03:38.456Z,11.53
2019-03-29T15:06:09.422Z,7.63
2019-03-29T15:08:40.358Z,12.40
2019-03-29T15:11:22.116Z,11.10
2019-03-29T15:13:43.862Z,8.73
2019-03-29T15:16:14.811Z,12.53
2019-03-29T15:18:45.761Z,9.33
2019-03-29T15:21:16.731Z,8.93
2019-03-29T15:23:47.605Z,7.83
2019-03-29T15:26:18.536Z,6.67
2019-03-29T15:28:49.673Z,11.17
2019-03-29T15:31:20.617Z,5.97
2019-03-29T15:33:51.514Z,7.77
2019-03-29T15:36:22.357Z,9.23
2019-03-29T15:38:53.285Z,8.13
2019-03-29T15:41:24.134Z,7.70
2019-03-29T15:43:55.019Z,9.47
2019-03-29T15:46:25.877Z,10.93
2019-03-29T15:48:56.785Z,8.23
2019-03-29T15:51:27.652Z,7.90
2019-03-29T15:53:58.525Z,8.47
2019-03-29T15:56:29.428Z,7.10
2019-03-29T15:59:00.706Z,10.80
2019-03-29T16:01:31.641Z,10.00
2019-03-29T16:04:02.609Z,10.27
2019-03-29T16:06:33.756Z,6.93
2019-03-29T16:09:05.748Z,18.10
2019-03-29T16:11:36.743Z,16.53
2019-03-29T16:14:07.631Z,15.33
2019-03-29T16:16:38.513Z,11.20
2019-03-29T16:19:09.397Z,10.20
2019-03-29T16:21:40.244Z,8.97
2019-03-29T16:24:11.186Z,10.80
2019-03-29T16:26:42.046Z,11.17
2019-03-29T16:29:14.968Z,12.10
2019-03-29T16:31:45.837Z,10.67
2019-03-29T16:34:16.815Z,11.80
2019-03-29T16:36:47.696Z,11.70
2019-03-29T16:39:18.575Z,10.67
2019-03-29T16:41:49.458Z,10.50
2019-03-29T16:44:20.325Z,9.47
2019-03-29T16:46:51.394Z,16.07
2019-03-29T16:49:22.251Z,10.87
2019-03-29T16:51:54.340Z,9.50
2019-03-29T16:54:25.283Z,47.03
2019-03-29T16:56:56.193Z,11.10
2019-03-29T16:59:27.817Z,8.37
2019-03-29T17:01:58.740Z,6.70
2019-03-29T17:04:29.959Z,11.83
2019-03-29T17:07:00.893Z,9.00
2019-03-29T17:09:31.794Z,10.47
2019-03-29T17:12:03.077Z,8.97
2019-03-29T17:14:33.933Z,7.43
2019-03-29T17:17:04.834Z,8.83
2019-03-29T17:19:35.885Z,7.70
2019-03-29T17:22:06.808Z,9.53
2019-03-29T17:24:37.695Z,7.83
2019-03-29T17:27:08.659Z,9.40
2019-03-29T17:29:39.577Z,7.47
2019-03-29T17:32:10.486Z,9.10
2019-03-29T17:34:41.396Z,11.00
2019-03-29T17:37:12.190Z,9.53
2019-03-29T17:39:43.099Z,9.57
2019-03-29T17:42:14.024Z,7.47
2019-03-29T17:44:45.079Z,8.70
2019-03-29T17:47:16.275Z,9.13
2019-03-29T17:49:47.239Z,9.60
2019-03-29T17:52:18.142Z,9.07
2019-03-29T17:54:49.055Z,10.17
2019-03-29T17:57:19.949Z,8.73
2019-03-29T17:59:51.003Z,10.63
2019-03-29T18:02:21.905Z,9.00
2019-03-29T18:04:52.863Z,11.90
2019-03-29T18:07:23.846Z,11.50
2019-03-29T18:09:54.813Z,10.37
2019-03-29T18:12:25.729Z,13.60
2019-03-29T18:14:56.672Z,11.70
2019-03-29T18:17:27.653Z,15.10
2019-03-29T18:19:58.655Z,12.53
2019-03-29T18:22:29.547Z,12.00
2019-03-29T18:25:00.646Z,16.10
2019-03-29T18:27:31.737Z,20.20
2019-03-29T18:30:03.817Z,16.53
2019-03-29T18:32:34.975Z,17.93
2019-03-29T18:35:06.351Z,17.47
2019-03-29T18:37:37.236Z,16.90
2019-03-29T18:40:10.132Z,14.93
2019-03-29T18:42:40.932Z,12.80
2019-03-29T18:45:12.113Z,14.40
2019-03-29T18:47:43.013Z,11.67
2019-03-29T18:50:13.984Z,12.70
2019-03-29T18:52:45.882Z,14.00
2019-03-29T18:55:16.835Z,16.03
2019-03-29T18:57:47.744Z,13.47
2019-03-29T19:00:25.425Z,12.53
2019-03-29T19:02:56.289Z,13.57
2019-03-29T19:05:27.622Z,10.33
2019-03-29T19:07:58.502Z,13.50
2019-03-29T19:10:29.392Z,11.70
2019-03-29T19:13:00.297Z,13.13
2019-03-29T19:15:31.291Z,13.63
2019-03-29T19:18:02.213Z,16.93
2019-03-29T19:20:33.173Z,15.87
2019-03-29T19:23:05.139Z,16.50
2019-03-29T19:25:36.180Z,17.20
2019-03-29T19:28:07.193Z,15.87
2019-03-29T19:30:38.785Z,13.70
2019-03-29T19:33:09.737Z,19.43
2019-03-29T19:35:40.617Z,12.87
2019-03-29T19:38:11.525Z,17.37
2019-03-29T19:40:42.474Z,11.73
2019-03-29T19:43:20.260Z,12.93
2019-03-29T19:45:51.142Z,16.90
2019-03-29T19:48:22.058Z,14.30
2019-03-29T19:50:52.974Z,11.33
2019-03-29T19:53:23.870Z,19.93
2019-03-29T19:55:55.774Z,14.73
2019-03-29T19:58:26.897Z,15.00
2019-03-29T20:00:59.181Z,13.37
2019-03-29T20:03:30.226Z,16.50
2019-03-29T20:06:01.484Z,14.57
2019-03-29T20:08:32.424Z,12.53
2019-03-29T20:11:03.354Z,13.83
2019-03-29T20:13:34.252Z,24.30
2019-03-29T20:16:05.205Z,17.17
2019-03-29T20:18:36.129Z,11.48
2019-03-29T20:21:07.006Z,11.70
2019-03-29T20:23:37.916Z,10.32
2019-03-29T20:26:08.819Z,12.05
2019-03-29T20:28:39.673Z,11.43
2019-03-29T20:31:10.593Z,11.67
2019-03-29T20:33:41.541Z,13.53
2019-03-29T20:36:12.849Z,11.77
2019-03-29T20:38:44.591Z,12.57
2019-03-29T20:41:15.609Z,14.90
2019-03-29T20:43:46.527Z,12.40
2019-03-29T20:46:17.426Z,14.38
2019-03-29T20:48:48.754Z,15.13
2019-03-29T20:51:19.545Z,12.10
2019-03-29T20:53:50.441Z,14.67
2019-03-29T20:56:21.250Z,12.80
2019-03-29T20:58:52.161Z,13.13
2019-03-29T21:01:23.378Z,11.40
2019-03-29T21:03:54.313Z,14.70
2019-03-29T21:06:25.215Z,13.25
2019-03-29T21:08:56.119Z,12.45
2019-03-29T21:11:27.041Z,13.87
2019-03-29T21:13:57.957Z,12.05
2019-03-29T21:16:28.915Z,14.57
2019-03-29T21:18:59.897Z,15.50
2019-03-29T21:21:30.845Z,12.82
2019-03-29T21:24:01.855Z,17.77
2019-03-29T21:26:32.793Z,17.90
2019-03-29T21:29:03.742Z,14.47
2019-03-29T21:31:36.131Z,11.05
2019-03-29T21:34:07.134Z,20.82
2019-03-29T21:36:38.059Z,12.95
2019-03-29T21:39:11.405Z,16.27
2019-03-29T21:41:42.442Z,13.43
2019-03-29T21:44:13.369Z,15.35
2019-03-29T21:46:44.237Z,15.03
2019-03-29T21:49:15.130Z,15.68
2019-03-29T21:51:46.097Z,10.33
2019-03-29T21:54:16.995Z,11.75
2019-03-29T21:56:47.925Z,13.25
2019-03-29T21:59:18.917Z,19.73
2019-03-29T22:01:49.871Z,12.18
2019-03-29T22:04:20.842Z,19.77
2019-03-29T22:06:51.787Z,12.78
2019-03-29T22:09:36.169Z,15.10
2019-03-29T22:11:55.445Z,18.25
2019-03-29T22:14:26.357Z,13.22
2019-03-29T22:16:57.305Z,13.00
2019-03-29T22:19:28.218Z,9.67
2019-03-29T22:21:59.173Z,16.67
2019-03-29T22:24:29.957Z,11.80
2019-03-29T22:27:01.133Z,12.35
2019-03-29T22:29:32.089Z,16.10
2019-03-29T22:32:03.000Z,11.05
2019-03-29T22:34:35.053Z,19.75
2019-03-29T22:37:06.079Z,10.53
2019-03-29T22:39:37.050Z,14.90
2019-03-29T22:42:08.263Z,13.98
2019-03-29T22:44:39.236Z,17.65
2019-03-29T22:47:10.228Z,11.63
2019-03-29T22:49:41.305Z,13.05
2019-03-29T22:52:12.175Z,13.03
2019-03-29T22:54:43.086Z,11.20
2019-03-29T22:57:15.056Z,12.30
2019-03-29T22:59:45.976Z,13.50
2019-03-29T23:02:16.927Z,15.90
2019-03-29T23:04:47.837Z,14.78
2019-03-29T23:07:18.804Z,13.08
2019-03-29T23:09:49.653Z,12.70
2019-03-29T23:12:23.271Z,11.83
2019-03-29T23:14:54.165Z,11.00
2019-03-29T23:17:25.063Z,14.90
2019-03-29T23:19:56.081Z,10.70
2019-03-29T23:22:26.967Z,10.35
2019-03-29T23:24:57.897Z,9.73
2019-03-29T23:27:28.909Z,11.03
2019-03-29T23:29:59.843Z,21.23
2019-03-29T23:32:30.776Z,13.62
2019-03-29T23:35:01.803Z,10.25
2019-03-29T23:37:33.513Z,11.55
2019-03-29T23:40:05.496Z,10.55
2019-03-29T23:42:36.362Z,16.42
2019-03-29T23:45:07.481Z,12.00
2019-03-29T23:47:38.397Z,14.43
2019-03-29T23:50:09.339Z,13.72
2019-03-29T23:52:40.281Z,14.25
2019-03-29T23:55:11.702Z,20.55
2019-03-29T23:57:42.635Z,13.37
